createdAt,value
2019-03-09T00:01:10.687Z,100254.83
2019-03-09T00:03:38.823Z,100255.82
2019-03-09T00:06:06.936Z,100254.83
2019-03-09T00:08:36.410Z,100257.45
2019-03-09T00:11:06.476Z,100255.48
2019-03-09T00:13:34.550Z,100258.42
2019-03-09T00:16:02.578Z,100260.73
2019-03-09T00:18:30.652Z,100263.01
2019-03-09T00:20:59.305Z,100265.62
2019-03-09T00:23:46.993Z,100258.58
2019-03-09T00:26:23.394Z,100257.94
2019-03-09T00:29:04.947Z,100264.66
2019-03-09T00:31:49.871Z,100269.41
2019-03-09T00:34:18.196Z,100270.55
2019-03-09T00:36:46.270Z,100278.41
2019-03-09T00:39:14.529Z,100274.16
2019-03-09T00:41:42.584Z,100270.70
2019-03-09T00:44:10.650Z,100270.88
2019-03-09T00:46:39.018Z,100269.89
2019-03-09T00:49:08.190Z,100261.21
2019-03-09T00:51:36.545Z,100258.09
2019-03-09T00:54:04.608Z,100256.45
2019-03-09T00:56:32.662Z,100253.86
2019-03-09T00:59:01.026Z,100247.30
2019-03-09T01:01:29.061Z,100244.68
2019-03-09T01:03:57.130Z,100247.94
2019-03-09T01:06:25.202Z,100250.23
2019-03-09T01:08:53.311Z,100245.31
2019-03-09T01:11:22.242Z,100248.61
2019-03-09T01:13:50.314Z,100254.17
2019-03-09T01:16:18.342Z,100252.69
2019-03-09T01:18:46.409Z,100241.24
2019-03-09T01:21:14.790Z,100244.82
2019-03-09T01:23:43.488Z,100234.52
2019-03-09T01:26:11.512Z,100233.03
2019-03-09T01:28:39.612Z,100226.33
2019-03-09T01:31:07.703Z,100227.47
2019-03-09T01:33:35.758Z,100220.42
2019-03-09T01:36:03.774Z,100221.06
2019-03-09T01:38:32.122Z,100213.20
2019-03-09T01:41:00.149Z,100212.88
2019-03-09T01:43:28.241Z,100205.52
2019-03-09T01:45:56.274Z,100209.77
2019-03-09T01:48:24.877Z,100206.65
2019-03-09T01:50:53.031Z,100204.52
2019-03-09T01:53:22.284Z,100202.39
2019-03-09T01:55:52.147Z,100203.53
2019-03-09T01:58:20.208Z,100199.42
2019-03-09T02:00:48.469Z,100200.73
2019-03-09T02:03:16.539Z,100198.93
2019-03-09T02:05:44.572Z,100191.39
2019-03-09T02:08:13.880Z,100192.20
2019-03-09T02:10:42.193Z,100189.27
2019-03-09T02:13:10.243Z,100183.84
2019-03-09T02:15:38.304Z,100185.01
2019-03-09T02:18:06.655Z,100179.77
2019-03-09T02:20:34.698Z,100168.14
2019-03-09T02:23:03.021Z,100161.58
2019-03-09T02:25:31.076Z,100161.91
2019-03-09T02:27:59.148Z,100159.42
2019-03-09T02:30:27.297Z,100164.53
2019-03-09T02:32:55.343Z,100172.86
2019-03-09T02:35:27.644Z,100167.12
2019-03-09T02:37:58.803Z,100173.35
2019-03-09T02:40:27.947Z,100170.23
2019-03-09T02:42:55.949Z,100155.00
2019-03-09T02:45:24.615Z,100157.27
2019-03-09T02:47:52.654Z,100164.00
2019-03-09T02:50:20.943Z,100162.52
2019-03-09T02:52:49.037Z,100144.97
2019-03-09T02:55:17.097Z,100139.72
2019-03-09T02:57:45.214Z,100135.12
2019-03-09T03:00:15.860Z,100128.73
2019-03-09T03:02:50.546Z,100138.23
2019-03-09T03:05:18.628Z,100143.34
2019-03-09T03:07:46.699Z,100144.65
2019-03-09T03:10:14.736Z,100148.58
2019-03-09T03:12:42.886Z,100135.79
2019-03-09T03:15:13.230Z,100139.73
2019-03-09T03:17:41.279Z,100136.78
2019-03-09T03:20:09.883Z,100133.52
2019-03-09T03:22:38.043Z,100128.11
2019-03-09T03:25:06.456Z,100125.34
2019-03-09T03:27:34.529Z,100122.08
2019-03-09T03:30:02.634Z,100109.61
2019-03-09T03:32:34.355Z,100114.25
2019-03-09T03:35:02.448Z,100111.63
2019-03-09T03:37:31.478Z,100120.13
2019-03-09T03:39:59.582Z,100122.29
2019-03-09T03:42:27.630Z,100118.50
2019-03-09T03:44:55.705Z,100114.11
2019-03-09T03:47:23.754Z,100116.73
2019-03-09T03:49:52.811Z,100112.80
2019-03-09T03:52:20.843Z,100119.52
2019-03-09T03:54:48.916Z,100110.03
2019-03-09T03:57:17.062Z,100111.66
2019-03-09T03:59:45.095Z,100114.92
2019-03-09T04:02:13.129Z,100104.79
2019-03-09T04:04:41.197Z,100108.72
2019-03-09T04:07:09.294Z,100098.23
2019-03-09T04:09:38.081Z,100090.38
2019-03-09T04:12:06.126Z,100090.02
2019-03-09T04:14:34.203Z,100083.33
2019-03-09T04:17:02.622Z,100092.64
2019-03-09T04:19:30.696Z,100085.63
2019-03-09T04:21:58.786Z,100093.48
2019-03-09T04:24:26.859Z,100094.63
2019-03-09T04:26:54.905Z,100099.52
2019-03-09T04:29:23.271Z,100104.26
2019-03-09T04:31:51.338Z,100107.38
2019-03-09T04:34:19.770Z,100115.24
2019-03-09T04:36:56.767Z,100123.74
2019-03-09T04:39:24.841Z,100124.56
2019-03-09T04:41:53.491Z,100132.74
2019-03-09T04:44:21.587Z,100150.11
2019-03-09T04:46:49.665Z,100146.52
2019-03-09T04:49:17.724Z,100159.14
2019-03-09T04:51:45.861Z,100160.77
2019-03-09T04:54:13.867Z,100153.39
2019-03-09T04:56:41.960Z,100146.03
2019-03-09T04:59:09.998Z,100148.80
2019-03-09T05:01:38.166Z,100158.14
2019-03-09T05:04:41.923Z,100153.89
2019-03-09T05:07:18.231Z,100152.90
2019-03-09T05:10:11.719Z,100158.98
2019-03-09T05:12:40.103Z,100152.61
2019-03-09T05:15:09.488Z,100157.35
2019-03-09T05:17:37.540Z,100158.16
2019-03-09T05:20:05.644Z,100171.62
2019-03-09T05:22:33.717Z,100163.61
2019-03-09T05:25:01.787Z,100169.98
2019-03-09T05:27:30.815Z,100179.01
2019-03-09T05:29:58.909Z,100170.15
2019-03-09T05:32:26.969Z,100175.39
2019-03-09T05:34:55.022Z,100169.68
2019-03-09T05:37:23.074Z,100182.60
2019-03-09T05:39:51.141Z,100195.02
2019-03-09T05:42:19.231Z,100193.07
2019-03-09T05:44:47.269Z,100202.56
2019-03-09T05:47:15.661Z,100207.33
2019-03-09T05:49:43.967Z,100210.41
2019-03-09T05:52:35.184Z,100219.92
2019-03-09T05:55:18.436Z,100220.25
2019-03-09T05:57:46.743Z,100229.73
2019-03-09T06:00:16.584Z,100232.85
2019-03-09T06:02:46.460Z,100232.05
2019-03-09T06:05:38.360Z,100239.06
2019-03-09T06:08:07.445Z,100239.42
2019-03-09T06:10:35.783Z,100247.59
2019-03-09T06:13:04.201Z,100250.03
2019-03-09T06:15:32.268Z,100251.20
2019-03-09T06:18:00.302Z,100259.06
2019-03-09T06:20:28.496Z,100253.15
2019-03-09T06:22:56.835Z,100248.59
2019-03-09T06:25:25.218Z,100257.41
2019-03-09T06:27:53.257Z,100255.63
2019-03-09T06:30:21.338Z,100261.52
2019-03-09T06:33:36.703Z,100263.97
2019-03-09T06:36:57.027Z,100272.48
2019-03-09T06:39:47.431Z,100275.44
2019-03-09T06:42:43.730Z,100287.39
2019-03-09T06:45:14.243Z,100278.22
2019-03-09T06:47:42.307Z,100284.09
2019-03-09T06:50:14.423Z,100275.41
2019-03-09T06:52:42.502Z,100287.38
2019-03-09T06:55:11.364Z,100285.73
2019-03-09T06:57:39.446Z,100292.13
2019-03-09T07:00:34.736Z,100284.26
2019-03-09T07:03:03.346Z,100289.67
2019-03-09T07:05:32.377Z,100299.16
2019-03-09T07:08:01.493Z,100299.31
2019-03-09T07:10:29.602Z,100306.03
2019-03-09T07:12:58.910Z,100311.95
2019-03-09T07:15:32.939Z,100316.70
2019-03-09T07:18:23.038Z,100324.39
2019-03-09T07:20:51.099Z,100327.51
2019-03-09T07:23:19.584Z,100344.05
2019-03-09T07:25:48.004Z,100342.56
2019-03-09T07:28:16.385Z,100334.86
2019-03-09T07:30:44.450Z,100336.85
2019-03-09T07:33:12.777Z,100339.14
2019-03-09T07:35:40.825Z,100330.64
2019-03-09T07:38:08.960Z,100343.25
2019-03-09T07:40:58.382Z,100340.77
2019-03-09T07:43:37.828Z,100333.77
2019-03-09T07:46:08.940Z,100333.95
2019-03-09T07:48:40.827Z,100340.82
2019-03-09T07:51:08.741Z,100334.27
2019-03-09T07:53:36.810Z,100338.34
2019-03-09T07:56:04.878Z,100346.88
2019-03-09T07:58:32.929Z,100350.47
2019-03-09T08:01:01.401Z,100349.66
2019-03-09T08:03:29.467Z,100361.31
2019-03-09T08:05:57.533Z,100353.77
2019-03-09T08:08:25.605Z,100360.65
2019-03-09T08:10:53.762Z,100359.98
2019-03-09T08:13:21.856Z,100353.44
2019-03-09T08:15:50.201Z,100359.82
2019-03-09T08:18:18.766Z,100354.42
2019-03-09T08:20:46.917Z,100361.80
2019-03-09T08:23:15.703Z,100360.17
2019-03-09T08:25:55.241Z,100356.89
2019-03-09T08:28:26.026Z,100356.73
2019-03-09T08:30:54.378Z,100355.26
2019-03-09T08:33:22.538Z,100360.01
2019-03-09T08:35:50.669Z,100362.46
2019-03-09T08:38:19.116Z,100360.52
2019-03-09T08:40:47.206Z,100361.34
2019-03-09T08:43:15.671Z,100355.77
2019-03-09T08:45:43.711Z,100355.59
2019-03-09T08:48:13.181Z,100354.94
2019-03-09T08:50:41.682Z,100353.45
2019-03-09T08:53:10.069Z,100352.16
2019-03-09T08:55:38.458Z,100354.11
2019-03-09T08:58:06.516Z,100364.78
2019-03-09T09:00:34.797Z,100358.21
2019-03-09T09:03:02.892Z,100359.52
2019-03-09T09:05:31.416Z,100355.27
2019-03-09T09:07:59.611Z,100354.12
2019-03-09T09:10:27.727Z,100356.27
2019-03-09T09:12:56.078Z,100352.33
2019-03-09T09:15:24.145Z,100342.14
2019-03-09T09:17:52.585Z,100332.33
2019-03-09T09:20:21.432Z,100329.70
2019-03-09T09:22:49.553Z,100325.27
2019-03-09T09:25:17.675Z,100323.94
2019-03-09T09:27:45.777Z,100321.00
2019-03-09T09:30:18.565Z,100320.83
2019-03-09T09:32:46.614Z,100313.75
2019-03-09T09:35:15.207Z,100305.88
2019-03-09T09:37:43.366Z,100307.84
2019-03-09T09:40:15.370Z,100313.26
2019-03-09T09:42:43.443Z,100310.78
2019-03-09T09:45:11.983Z,100320.93
2019-03-09T09:47:42.507Z,100327.14
2019-03-09T09:50:12.062Z,100332.54
2019-03-09T09:52:40.115Z,100316.29
2019-03-09T09:55:11.999Z,100306.78
2019-03-09T09:57:40.039Z,100282.80
2019-03-09T10:00:14.559Z,100307.25
2019-03-09T10:02:42.738Z,100310.55
2019-03-09T10:05:10.962Z,100316.26
2019-03-09T10:07:39.146Z,100304.61
2019-03-09T10:10:09.507Z,100301.17
2019-03-09T10:12:37.637Z,100300.18
2019-03-09T10:15:10.354Z,100303.27
2019-03-09T10:17:38.399Z,100304.75
2019-03-09T10:20:07.220Z,100310.28
2019-03-09T10:22:35.246Z,100305.20
2019-03-09T10:25:03.865Z,100300.94
2019-03-09T10:27:32.004Z,100309.95
2019-03-09T10:30:00.446Z,100307.28
2019-03-09T10:32:28.959Z,100307.77
2019-03-09T10:34:57.185Z,100316.11
2019-03-09T10:37:25.558Z,100316.42
2019-03-09T10:39:53.675Z,100310.66
2019-03-09T10:42:21.927Z,100313.28
2019-03-09T10:44:50.001Z,100307.53
2019-03-09T10:47:19.178Z,100300.16
2019-03-09T10:49:47.267Z,100301.63
2019-03-09T10:52:15.403Z,100292.91
2019-03-09T10:54:44.819Z,100293.41
2019-03-09T10:57:12.991Z,100301.96
2019-03-09T10:59:41.067Z,100295.91
2019-03-09T11:02:09.479Z,100288.52
2019-03-09T11:04:37.842Z,100288.20
2019-03-09T11:07:05.868Z,100269.00
2019-03-09T11:09:33.964Z,100260.30
2019-03-09T11:12:02.038Z,100268.19
2019-03-09T11:14:30.175Z,100276.06
2019-03-09T11:16:59.148Z,100280.64
2019-03-09T11:19:27.279Z,100275.05
2019-03-09T11:21:55.412Z,100281.75
2019-03-09T11:24:24.520Z,100271.55
2019-03-09T11:26:52.713Z,100273.67
2019-03-09T11:29:23.446Z,100272.85
2019-03-09T11:31:51.563Z,100278.88
2019-03-09T11:34:21.326Z,100271.48
2019-03-09T11:36:49.661Z,100257.84
2019-03-09T11:39:18.439Z,100244.20
2019-03-09T11:41:46.531Z,100243.06
2019-03-09T11:44:17.424Z,100237.95
2019-03-09T11:46:45.560Z,100226.09
2019-03-09T11:49:13.656Z,100230.17
2019-03-09T11:51:41.701Z,100240.67
2019-03-09T11:54:09.750Z,100236.36
2019-03-09T11:56:37.852Z,100246.69
2019-03-09T11:59:06.616Z,100257.68
2019-03-09T12:01:35.608Z,100270.13
2019-03-09T12:04:03.933Z,100271.70
2019-03-09T12:06:32.017Z,100288.45
2019-03-09T12:09:00.071Z,100281.02
2019-03-09T12:11:28.259Z,100282.31
2019-03-09T12:13:56.357Z,100274.89
2019-03-09T12:16:24.767Z,100281.91
2019-03-09T12:18:52.863Z,100272.84
2019-03-09T12:21:21.061Z,100272.81
2019-03-09T12:23:50.457Z,100271.47
2019-03-09T12:26:18.846Z,100270.50
2019-03-09T12:28:46.931Z,100281.83
2019-03-09T12:31:15.002Z,100301.72
2019-03-09T12:33:43.100Z,100296.17
2019-03-09T12:36:11.139Z,100283.16
2019-03-09T12:38:39.188Z,100272.31
2019-03-09T12:41:07.270Z,100268.05
2019-03-09T12:43:35.704Z,100270.16
2019-03-09T12:46:04.040Z,100265.34
2019-03-09T12:48:32.197Z,100256.42
2019-03-09T12:51:00.306Z,100261.78
2019-03-09T12:53:28.763Z,100258.27
2019-03-09T12:55:56.849Z,100248.72
2019-03-09T12:58:24.906Z,100253.51
2019-03-09T13:00:53.171Z,100237.84
2019-03-09T13:03:21.340Z,100243.27
2019-03-09T13:05:49.410Z,100225.47
2019-03-09T13:08:17.524Z,100227.37
2019-03-09T13:10:45.579Z,100248.55
2019-03-09T13:13:13.641Z,100243.75
2019-03-09T13:15:41.710Z,100223.86
2019-03-09T13:18:10.000Z,100226.68
2019-03-09T13:20:38.074Z,100205.31
2019-03-09T13:23:06.503Z,100217.47
2019-03-09T13:25:35.168Z,100220.91
2019-03-09T13:28:03.354Z,100228.47
2019-03-09T13:30:32.532Z,100217.47
2019-03-09T13:33:01.139Z,100243.52
2019-03-09T13:35:29.187Z,100232.23
2019-03-09T13:37:57.668Z,100231.61
2019-03-09T13:40:25.740Z,100229.52
2019-03-09T13:42:53.980Z,100236.69
2019-03-09T13:45:22.249Z,100243.79
2019-03-09T13:47:50.330Z,100232.55
2019-03-09T13:50:18.396Z,100225.18
2019-03-09T13:52:48.301Z,100236.26
2019-03-09T13:55:16.477Z,100232.55
2019-03-09T13:57:44.548Z,100234.27
2019-03-09T14:00:14.663Z,100215.72
2019-03-09T14:02:42.788Z,100206.55
2019-03-09T14:05:11.184Z,100200.19
2019-03-09T14:07:40.525Z,100193.88
2019-03-09T14:10:10.353Z,100196.89
2019-03-09T14:12:51.974Z,100186.41
2019-03-09T14:15:35.171Z,100199.28
2019-03-09T14:18:05.288Z,100210.94
2019-03-09T14:20:33.350Z,100225.75
2019-03-09T14:23:02.299Z,100233.66
2019-03-09T14:25:30.399Z,100224.47
2019-03-09T14:27:58.869Z,100220.27
2019-03-09T14:30:26.923Z,100207.95
2019-03-09T14:32:55.588Z,100213.59
2019-03-09T14:35:24.747Z,100216.26
2019-03-09T14:37:54.648Z,100210.17
2019-03-09T14:40:22.736Z,100217.73
2019-03-09T14:42:50.827Z,100220.55
2019-03-09T14:45:18.977Z,100223.17
2019-03-09T14:47:47.063Z,100225.48
2019-03-09T14:50:16.108Z,100226.94
2019-03-09T14:52:44.193Z,100225.12
2019-03-09T14:55:12.669Z,100223.99
2019-03-09T14:57:40.739Z,100226.48
2019-03-09T15:00:15.106Z,100227.61
2019-03-09T15:02:43.457Z,100224.98
2019-03-09T15:05:13.218Z,100222.04
2019-03-09T15:07:41.356Z,100220.23
2019-03-09T15:10:09.734Z,100222.38
2019-03-09T15:12:37.908Z,100218.93
2019-03-09T15:15:07.937Z,100221.88
2019-03-09T15:17:35.997Z,100226.48
2019-03-09T15:20:04.755Z,100228.06
2019-03-09T15:22:32.832Z,100225.25
2019-03-09T15:25:01.174Z,100231.84
2019-03-09T15:27:29.390Z,100240.16
2019-03-09T15:29:57.455Z,100229.77
2019-03-09T15:32:25.515Z,100244.34
2019-03-09T15:34:53.696Z,100248.91
2019-03-09T15:37:21.852Z,100262.34
2019-03-09T15:39:49.915Z,100276.88
2019-03-09T15:42:19.154Z,100259.60
2019-03-09T15:44:47.558Z,100246.26
2019-03-09T15:47:16.284Z,100227.97
2019-03-09T15:49:44.329Z,100213.94
2019-03-09T15:52:12.397Z,100218.64
2019-03-09T15:54:40.761Z,100205.10
2019-03-09T15:57:08.836Z,100209.14
2019-03-09T15:59:37.873Z,100205.11
2019-03-09T16:02:10.394Z,100193.99
2019-03-09T16:04:39.720Z,100201.16
2019-03-09T16:07:08.032Z,100194.99
2019-03-09T16:09:36.421Z,100195.92
2019-03-09T16:12:04.562Z,100198.02
2019-03-09T16:14:34.448Z,100191.38
2019-03-09T16:17:06.733Z,100197.41
2019-03-09T16:19:35.371Z,100199.70
2019-03-09T16:22:04.351Z,100206.09
2019-03-09T16:24:32.930Z,100205.70
2019-03-09T16:27:01.070Z,100222.31
2019-03-09T16:29:29.136Z,100222.16
2019-03-09T16:31:57.316Z,100227.86
2019-03-09T16:34:25.466Z,100225.84
2019-03-09T16:36:54.768Z,100232.43
2019-03-09T16:39:23.236Z,100232.08
2019-03-09T16:41:54.082Z,100234.83
2019-03-09T16:44:23.122Z,100244.20
2019-03-09T16:46:51.284Z,100238.55
2019-03-09T16:49:19.670Z,100260.56
2019-03-09T16:51:47.833Z,100266.48
2019-03-09T16:54:17.441Z,100269.23
2019-03-09T16:56:45.573Z,100265.41
2019-03-09T16:59:13.675Z,100259.78
2019-03-09T17:01:42.751Z,100260.09
2019-03-09T17:04:11.209Z,100256.27
2019-03-09T17:06:39.318Z,100243.09
2019-03-09T17:09:07.884Z,100235.84
2019-03-09T17:11:37.771Z,100256.73
2019-03-09T17:14:05.882Z,100249.14
2019-03-09T17:16:34.078Z,100261.80
2019-03-09T17:19:02.222Z,100275.98
2019-03-09T17:21:30.258Z,100279.43
2019-03-09T17:23:58.726Z,100279.74
2019-03-09T17:26:27.255Z,100275.29
2019-03-09T17:28:55.312Z,100272.66
2019-03-09T17:31:23.434Z,100274.98
2019-03-09T17:33:51.569Z,100287.02
2019-03-09T17:36:20.148Z,100278.50
2019-03-09T17:38:48.527Z,100277.34
2019-03-09T17:41:16.966Z,100286.09
2019-03-09T17:43:45.091Z,100292.98
2019-03-09T17:46:13.341Z,100296.12
2019-03-09T17:48:41.948Z,100301.89
2019-03-09T17:51:10.047Z,100299.41
2019-03-09T17:53:38.713Z,100300.58
2019-03-09T17:56:06.815Z,100297.59
2019-03-09T17:58:35.303Z,100297.94
2019-03-09T18:01:03.394Z,100297.59
2019-03-09T18:03:31.488Z,100298.60
2019-03-09T18:05:59.918Z,100309.83
2019-03-09T18:08:28.174Z,100312.47
2019-03-09T18:11:00.811Z,100313.66
2019-03-09T18:13:28.866Z,100307.89
2019-03-09T18:15:57.245Z,100302.28
2019-03-09T18:18:25.484Z,100318.92
2019-03-09T18:20:53.564Z,100319.05
2019-03-09T18:23:21.633Z,100317.73
2019-03-09T18:25:49.901Z,100330.59
2019-03-09T18:28:18.090Z,100324.51
2019-03-09T18:30:46.384Z,100337.83
2019-03-09T18:33:14.763Z,100334.07
2019-03-09T18:35:43.094Z,100331.66
2019-03-09T18:38:11.242Z,100332.66
2019-03-09T18:40:39.773Z,100330.22
2019-03-09T18:43:08.021Z,100332.85
2019-03-09T18:45:36.232Z,100353.61
2019-03-09T18:48:04.307Z,100352.20
2019-03-09T18:50:32.351Z,100348.52
2019-03-09T18:53:00.675Z,100355.16
2019-03-09T18:55:29.124Z,100353.74
2019-03-09T18:57:57.130Z,100371.34
2019-03-09T19:00:25.212Z,100364.45
2019-03-09T19:02:53.366Z,100368.95
2019-03-09T19:05:21.528Z,100379.50
2019-03-09T19:07:49.660Z,100376.87
2019-03-09T19:10:18.365Z,100373.13
2019-03-09T19:12:47.262Z,100379.70
2019-03-09T19:15:15.672Z,100390.91
2019-03-09T19:17:43.785Z,100388.48
2019-03-09T19:20:12.835Z,100406.95
2019-03-09T19:22:47.949Z,100412.21
2019-03-09T19:25:16.335Z,100405.64
2019-03-09T19:27:44.800Z,100397.58
2019-03-09T19:30:14.346Z,100389.07
2019-03-09T19:32:42.544Z,100403.60
2019-03-09T19:35:10.651Z,100411.19
2019-03-09T19:37:38.692Z,100413.50
2019-03-09T19:40:09.567Z,100420.75
2019-03-09T19:42:37.637Z,100402.70
2019-03-09T19:45:07.685Z,100407.97
2019-03-09T19:47:35.728Z,100402.05
2019-03-09T19:50:04.697Z,100406.16
2019-03-09T19:52:33.002Z,100407.80
2019-03-09T19:55:01.226Z,100416.67
2019-03-09T19:57:29.581Z,100413.36
2019-03-09T19:59:58.221Z,100415.99
2019-03-09T20:02:26.271Z,100421.89
2019-03-09T20:04:54.811Z,100424.34
2019-03-09T20:07:22.893Z,100420.73
2019-03-09T20:09:51.142Z,100428.95
2019-03-09T20:12:20.837Z,100421.88
2019-03-09T20:14:49.333Z,100423.83
2019-03-09T20:17:18.070Z,100423.01
2019-03-09T20:19:46.158Z,100414.30
2019-03-09T20:22:14.567Z,100418.75
2019-03-09T20:24:42.641Z,100406.41
2019-03-09T20:27:10.817Z,100415.30
2019-03-09T20:29:38.992Z,100415.30
2019-03-09T20:32:07.053Z,100419.24
2019-03-09T20:34:35.491Z,100416.11
2019-03-09T20:37:03.715Z,100423.52
2019-03-09T20:39:33.066Z,100421.39
2019-03-09T20:42:01.506Z,100433.41
2019-03-09T20:44:29.543Z,100420.25
2019-03-09T20:46:57.938Z,100417.13
2019-03-09T20:49:26.141Z,100415.50
2019-03-09T20:51:54.254Z,100408.60
2019-03-09T20:54:22.320Z,100417.48
2019-03-09T20:56:50.612Z,100413.36
2019-03-09T20:59:18.801Z,100416.81
2019-03-09T21:01:46.853Z,100423.38
2019-03-09T21:04:17.388Z,100413.22
2019-03-09T21:06:45.597Z,100424.21
2019-03-09T21:09:13.667Z,100414.36
2019-03-09T21:11:54.164Z,100414.05
2019-03-09T21:14:22.230Z,100409.91
2019-03-09T21:16:50.360Z,100406.61
2019-03-09T21:19:18.448Z,100396.41
2019-03-09T21:21:46.535Z,100402.48
2019-03-09T21:24:15.019Z,100404.14
2019-03-09T21:26:43.445Z,100401.98
2019-03-09T21:29:11.546Z,100402.33
2019-03-09T21:31:39.618Z,100397.22
2019-03-09T21:34:07.755Z,100387.37
2019-03-09T21:36:36.325Z,100382.74
2019-03-09T21:39:05.390Z,100385.87
2019-03-09T21:41:44.707Z,100391.31
2019-03-09T21:44:12.779Z,100395.89
2019-03-09T21:46:41.253Z,100389.31
2019-03-09T21:49:09.720Z,100391.81
2019-03-09T21:51:37.780Z,100391.13
2019-03-09T21:54:05.809Z,100374.85
2019-03-09T21:56:34.943Z,100382.24
2019-03-09T21:59:03.099Z,100378.80
2019-03-09T22:01:31.211Z,100384.05
2019-03-09T22:03:59.273Z,100382.24
2019-03-09T22:06:27.552Z,100380.25
2019-03-09T22:08:55.652Z,100375.80
2019-03-09T22:11:23.797Z,100373.02
2019-03-09T22:13:51.834Z,100371.03
2019-03-09T22:16:19.923Z,100379.23
2019-03-09T22:18:48.136Z,100391.20
2019-03-09T22:21:16.568Z,100388.42
2019-03-09T22:23:44.863Z,100381.03
2019-03-09T22:26:13.288Z,100376.41
2019-03-09T22:28:41.345Z,100371.64
2019-03-09T22:31:09.435Z,100378.34
2019-03-09T22:33:37.488Z,100384.91
2019-03-09T22:36:05.530Z,100394.11
2019-03-09T22:38:39.011Z,100400.69
2019-03-09T22:41:07.092Z,100394.45
2019-03-09T22:43:35.128Z,100406.78
2019-03-09T22:46:03.157Z,100406.78
2019-03-09T22:48:31.536Z,100399.39
2019-03-09T22:50:59.665Z,100389.23
2019-03-09T22:53:27.723Z,100385.61
2019-03-09T22:55:55.779Z,100382.98
2019-03-09T22:58:23.799Z,100374.11
2019-03-09T23:00:51.957Z,100353.11
2019-03-09T23:03:20.514Z,100356.24
2019-03-09T23:05:48.589Z,100350.50
2019-03-09T23:08:18.175Z,100342.34
2019-03-09T23:10:46.254Z,100344.48
2019-03-09T23:13:14.474Z,100341.98
2019-03-09T23:15:42.536Z,100337.67
2019-03-09T23:18:10.886Z,100342.80
2019-03-09T23:20:39.029Z,100343.48
2019-03-09T23:23:07.088Z,100344.63
2019-03-09T23:25:35.171Z,100349.07
2019-03-09T23:28:03.274Z,100347.76
2019-03-09T23:30:31.534Z,100340.87
2019-03-09T23:32:59.726Z,100329.55
2019-03-09T23:35:27.796Z,100325.79
2019-03-09T23:37:55.912Z,100329.59
2019-03-09T23:40:24.093Z,100324.97
2019-03-09T23:42:53.137Z,100316.45
2019-03-09T23:45:21.353Z,100311.69
2019-03-09T23:47:50.000Z,100306.27
2019-03-09T23:50:19.440Z,100295.17
2019-03-09T23:52:47.708Z,100286.48
2019-03-09T23:55:21.928Z,100277.13
2019-03-09T23:57:47.447Z,100284.19
